createdAt,value
2022-09-29T00:01:31.774Z,8.00
2022-09-29T00:03:58.861Z,8.20
2022-09-29T00:06:25.881Z,8.00
2022-09-29T00:09:58.097Z,7.60
2022-09-29T00:12:25.637Z,6.90
2022-09-29T00:14:52.792Z,6.53
2022-09-29T00:17:19.805Z,7.55
2022-09-29T00:19:46.947Z,6.70
2022-09-29T00:22:14.173Z,6.97
2022-09-29T00:24:41.421Z,7.03
2022-09-29T00:27:08.574Z,7.68
2022-09-29T00:29:35.583Z,7.53
2022-09-29T00:32:02.695Z,7.95
2022-09-29T00:34:29.738Z,7.32
2022-09-29T00:36:56.885Z,7.95
2022-09-29T00:39:23.902Z,7.57
2022-09-29T00:41:50.971Z,9.05
2022-09-29T00:44:19.425Z,7.90
2022-09-29T00:46:58.346Z,7.35
2022-09-29T00:49:44.315Z,7.38
2022-09-29T00:52:23.170Z,7.65
2022-09-29T00:55:13.477Z,6.88
2022-09-29T00:58:57.777Z,7.18
2022-09-29T01:01:28.720Z,7.20
2022-09-29T01:04:59.781Z,7.63
2022-09-29T01:07:27.633Z,7.20
2022-09-29T01:09:57.164Z,6.70
2022-09-29T01:12:47.143Z,6.05
2022-09-29T01:15:16.743Z,7.75
2022-09-29T01:17:47.772Z,7.85
2022-09-29T01:20:19.095Z,8.75
2022-09-29T01:22:58.138Z,8.05
2022-09-29T01:25:37.217Z,9.55
2022-09-29T01:29:14.285Z,8.85
2022-09-29T01:31:57.933Z,8.18
2022-09-29T01:34:58.932Z,10.02
2022-09-29T01:37:51.728Z,8.48
2022-09-29T01:40:59.564Z,8.27
2022-09-29T01:43:40.045Z,8.13
2022-09-29T01:46:33.377Z,9.15
2022-09-29T01:49:03.944Z,8.20
2022-09-29T01:52:11.516Z,8.52
2022-09-29T01:54:58.242Z,8.85
2022-09-29T01:57:43.905Z,7.40
2022-09-29T02:00:13.445Z,8.02
2022-09-29T02:02:47.577Z,6.72
2022-09-29T02:05:24.707Z,7.68
2022-09-29T02:07:56.854Z,7.03
2022-09-29T02:10:30.980Z,7.53
2022-09-29T02:13:00.647Z,8.18
2022-09-29T02:15:32.954Z,8.18
2022-09-29T02:18:07.342Z,6.93
2022-09-29T02:23:28.059Z,6.90
2022-09-29T02:25:57.525Z,8.70
2022-09-29T02:28:24.990Z,7.60
2022-09-29T02:30:53.029Z,7.53
2022-09-29T02:33:22.699Z,7.38
2022-09-29T02:36:07.162Z,7.45
2022-09-29T02:38:39.986Z,7.40
2022-09-29T02:41:35.099Z,7.18
2022-09-29T02:44:25.700Z,6.97
2022-09-29T02:47:03.759Z,7.43
2022-09-29T02:49:40.244Z,7.72
2022-09-29T02:52:22.298Z,7.90
2022-09-29T02:55:09.879Z,7.72
2022-09-29T02:57:54.222Z,6.78
2022-09-29T03:00:22.140Z,6.93
2022-09-29T03:02:49.210Z,7.03
2022-09-29T03:05:19.924Z,7.55
2022-09-29T03:07:47.374Z,7.40
2022-09-29T03:10:16.475Z,7.40
2022-09-29T03:12:43.525Z,7.70
2022-09-29T03:15:14.245Z,7.65
2022-09-29T03:17:43.666Z,7.32
2022-09-29T03:20:12.368Z,11.25
2022-09-29T03:22:39.554Z,10.68
2022-09-29T03:25:12.822Z,10.10
2022-09-29T03:27:39.854Z,10.38
2022-09-29T03:30:07.733Z,9.27
2022-09-29T03:32:35.333Z,7.78
2022-09-29T03:35:02.395Z,7.95
2022-09-29T03:37:29.728Z,8.27
2022-09-29T03:39:56.791Z,7.72
2022-09-29T03:42:24.417Z,6.95
2022-09-29T03:44:52.310Z,9.75
2022-09-29T03:47:19.416Z,8.80
2022-09-29T03:49:46.665Z,9.30
2022-09-29T03:52:13.706Z,8.02
2022-09-29T03:54:40.808Z,8.27
2022-09-29T03:57:07.890Z,7.85
2022-09-29T03:59:34.901Z,8.40
2022-09-29T04:02:02.118Z,7.93
2022-09-29T04:04:29.216Z,7.82
2022-09-29T04:06:56.250Z,6.95
2022-09-29T04:09:23.286Z,7.70
2022-09-29T04:11:53.397Z,7.60
2022-09-29T04:14:20.456Z,8.07
2022-09-29T04:16:47.557Z,7.68
2022-09-29T04:19:15.287Z,7.25
2022-09-29T04:21:42.441Z,7.22
2022-09-29T04:24:09.599Z,7.18
2022-09-29T04:26:36.653Z,7.35
2022-09-29T04:29:04.187Z,7.97
2022-09-29T04:31:31.284Z,8.38
2022-09-29T04:33:58.433Z,8.35
2022-09-29T04:36:25.729Z,9.05
2022-09-29T04:38:53.523Z,8.27
2022-09-29T04:41:20.723Z,7.38
2022-09-29T04:43:47.747Z,7.93
2022-09-29T04:46:15.538Z,7.00
2022-09-29T04:48:44.311Z,8.70
2022-09-29T04:51:11.414Z,8.23
2022-09-29T04:53:38.549Z,8.35
2022-09-29T04:56:07.109Z,8.68
2022-09-29T04:58:34.605Z,8.65
2022-09-29T05:01:06.958Z,9.30
2022-09-29T05:03:34.017Z,10.32
2022-09-29T05:06:01.077Z,10.15
2022-09-29T05:08:28.187Z,10.48
2022-09-29T05:10:57.617Z,10.60
2022-09-29T05:13:24.831Z,10.07
2022-09-29T05:15:56.056Z,9.48
2022-09-29T05:18:49.618Z,9.95
2022-09-29T05:21:28.045Z,9.50
2022-09-29T05:24:21.859Z,8.82
2022-09-29T05:26:48.950Z,8.20
2022-09-29T05:29:16.371Z,8.15
2022-09-29T05:31:46.457Z,8.90
2022-09-29T05:34:13.738Z,8.98
2022-09-29T05:36:40.918Z,9.00
2022-09-29T05:39:08.444Z,9.63
2022-09-29T05:41:35.566Z,9.38
2022-09-29T05:44:02.744Z,9.18
2022-09-29T05:46:30.465Z,10.48
2022-09-29T05:49:00.141Z,9.52
2022-09-29T05:51:27.574Z,9.98
2022-09-29T05:53:55.149Z,10.52
2022-09-29T05:56:25.380Z,10.50
2022-09-29T05:58:54.402Z,9.82
2022-09-29T06:01:26.810Z,11.13
2022-09-29T06:03:55.733Z,10.05
2022-09-29T06:06:26.659Z,11.95
2022-09-29T06:08:55.025Z,9.98
2022-09-29T06:11:24.488Z,11.30
2022-09-29T06:13:53.274Z,11.00
2022-09-29T06:16:23.232Z,10.75
2022-09-29T06:18:50.485Z,11.20
2022-09-29T06:21:20.493Z,11.30
2022-09-29T06:23:47.984Z,11.27
2022-09-29T06:26:21.448Z,11.50
2022-09-29T06:28:53.881Z,11.25
2022-09-29T06:31:23.428Z,10.75
2022-09-29T06:33:50.955Z,12.10
2022-09-29T06:36:40.927Z,11.98
2022-09-29T06:39:12.530Z,10.05
2022-09-29T06:41:40.284Z,9.65
2022-09-29T06:44:09.228Z,10.55
2022-09-29T06:46:36.449Z,9.90
2022-09-29T06:49:03.537Z,10.50
2022-09-29T06:51:41.094Z,10.27
2022-09-29T06:54:18.362Z,9.52
2022-09-29T06:56:49.950Z,9.93
2022-09-29T06:59:17.730Z,10.30
2022-09-29T07:01:51.252Z,9.20
2022-09-29T07:04:21.297Z,10.70
2022-09-29T07:06:49.668Z,10.63
2022-09-29T07:09:17.232Z,11.00
2022-09-29T07:11:46.950Z,9.80
2022-09-29T07:14:19.326Z,10.32
2022-09-29T07:16:49.801Z,10.40
2022-09-29T07:19:18.797Z,11.88
2022-09-29T07:21:46.952Z,10.95
2022-09-29T07:24:14.081Z,10.32
2022-09-29T07:26:41.995Z,10.27
2022-09-29T07:29:14.946Z,10.63
2022-09-29T07:31:51.031Z,9.93
2022-09-29T07:34:21.195Z,11.43
2022-09-29T07:36:48.670Z,8.95
2022-09-29T07:39:15.896Z,9.73
2022-09-29T07:41:43.211Z,8.90
2022-09-29T07:44:10.332Z,8.82
2022-09-29T07:46:37.428Z,8.98
2022-09-29T07:49:04.616Z,7.53
2022-09-29T07:51:32.816Z,8.77
2022-09-29T07:54:04.649Z,8.10
2022-09-29T07:56:33.172Z,8.60
2022-09-29T07:59:02.496Z,8.65
2022-09-29T08:01:29.895Z,7.25
2022-09-29T08:03:57.169Z,8.38
2022-09-29T08:06:27.257Z,6.82
2022-09-29T08:09:03.603Z,6.25
2022-09-29T08:11:38.251Z,6.43
2022-09-29T08:14:07.571Z,6.75
2022-09-29T08:16:38.417Z,5.53
2022-09-29T08:19:06.428Z,4.95
2022-09-29T08:21:36.669Z,4.55
2022-09-29T08:24:05.963Z,4.38
2022-09-29T08:26:44.177Z,3.90
2022-09-29T08:29:16.884Z,3.15
2022-09-29T08:31:45.465Z,4.20
2022-09-29T08:34:14.225Z,4.20
2022-09-29T08:36:41.747Z,4.00
2022-09-29T08:39:11.246Z,4.07
2022-09-29T08:42:08.505Z,3.88
2022-09-29T08:44:51.941Z,4.10
2022-09-29T08:47:41.261Z,3.63
2022-09-29T08:50:29.252Z,3.90
2022-09-29T08:53:01.547Z,4.25
2022-09-29T08:55:47.544Z,3.28
2022-09-29T08:58:17.045Z,3.58
2022-09-29T09:00:57.602Z,4.25
2022-09-29T09:04:04.597Z,4.00
2022-09-29T09:06:52.818Z,3.88
2022-09-29T09:09:29.610Z,3.13
2022-09-29T09:12:17.042Z,3.33
2022-09-29T09:15:02.953Z,3.30
2022-09-29T09:17:55.958Z,3.13
2022-09-29T09:20:36.955Z,2.92
2022-09-29T09:23:13.886Z,2.58
2022-09-29T09:25:53.372Z,2.47
2022-09-29T09:28:27.295Z,2.30
2022-09-29T09:31:13.648Z,3.20
2022-09-29T09:34:00.867Z,3.05
2022-09-29T09:36:37.471Z,2.80
2022-09-29T09:39:52.483Z,2.95
2022-09-29T09:42:24.878Z,3.30
2022-09-29T09:45:00.940Z,2.55
2022-09-29T09:47:42.974Z,2.90
2022-09-29T09:50:17.298Z,3.05
2022-09-29T09:55:26.314Z,2.83
2022-09-29T09:58:56.766Z,2.65
2022-09-29T10:01:24.180Z,2.60
2022-09-29T10:03:51.920Z,2.80
2022-09-29T10:06:19.159Z,2.90
2022-09-29T10:08:47.528Z,3.05
2022-09-29T10:11:28.145Z,2.63
2022-09-29T10:14:11.974Z,3.00
2022-09-29T10:16:50.306Z,2.70
2022-09-29T10:19:44.852Z,3.05
2022-09-29T10:22:15.578Z,2.65
2022-09-29T10:24:42.802Z,3.20
2022-09-29T10:27:11.282Z,2.58
2022-09-29T10:29:41.804Z,2.83
2022-09-29T10:32:36.697Z,3.00
2022-09-29T10:37:48.560Z,2.60
2022-09-29T10:40:24.024Z,3.40
2022-09-29T10:42:51.995Z,3.10
2022-09-29T10:45:24.368Z,3.05
2022-09-29T10:48:04.625Z,2.50
2022-09-29T10:50:37.595Z,3.05
2022-09-29T10:53:36.720Z,2.58
2022-09-29T10:56:17.353Z,2.90
2022-09-29T10:59:01.726Z,2.50
2022-09-29T11:01:35.246Z,3.05
2022-09-29T11:04:07.007Z,2.55
2022-09-29T11:06:44.011Z,2.83
2022-09-29T11:09:14.153Z,2.92
2022-09-29T11:11:59.951Z,2.83
2022-09-29T11:14:32.255Z,2.70
2022-09-29T11:17:01.599Z,3.50
2022-09-29T11:19:32.171Z,3.17
2022-09-29T11:22:43.094Z,3.15
2022-09-29T11:25:23.213Z,2.70
2022-09-29T11:28:17.785Z,2.72
2022-09-29T11:31:12.189Z,2.70
2022-09-29T11:33:54.329Z,2.92
2022-09-29T11:36:50.772Z,2.55
2022-09-29T11:39:48.297Z,2.70
2022-09-29T11:42:45.046Z,3.00
2022-09-29T11:47:50.480Z,2.28
2022-09-29T11:50:42.741Z,2.40
2022-09-29T11:53:41.490Z,2.63
2022-09-29T11:56:17.877Z,2.78
2022-09-29T11:58:54.459Z,2.42
2022-09-29T12:01:26.757Z,2.45
2022-09-29T12:04:11.860Z,2.72
2022-09-29T12:06:55.014Z,2.78
2022-09-29T12:09:59.315Z,2.50
2022-09-29T12:12:46.595Z,2.53
2022-09-29T12:15:37.427Z,2.67
2022-09-29T12:18:15.224Z,2.45
2022-09-29T12:23:18.549Z,2.47
2022-09-29T12:25:59.506Z,2.97
2022-09-29T12:28:43.523Z,2.38
2022-09-29T12:31:18.626Z,2.33
2022-09-29T12:33:51.766Z,2.45
2022-09-29T12:36:43.571Z,2.10
2022-09-29T12:39:15.837Z,2.28
2022-09-29T12:41:49.601Z,2.55
2022-09-29T12:44:30.778Z,2.13
2022-09-29T12:47:06.734Z,2.10
2022-09-29T12:49:57.131Z,1.90
2022-09-29T12:52:30.088Z,2.22
2022-09-29T12:55:02.742Z,2.30
2022-09-29T12:57:42.525Z,2.15
2022-09-29T13:00:19.055Z,2.20
2022-09-29T13:03:10.884Z,2.00
2022-09-29T13:05:58.648Z,2.10
2022-09-29T13:08:40.463Z,2.20
2022-09-29T13:11:35.078Z,2.15
2022-09-29T13:14:30.763Z,1.98
2022-09-29T13:17:12.464Z,2.05
2022-09-29T13:20:03.626Z,2.00
2022-09-29T13:22:33.440Z,2.20
2022-09-29T13:25:17.419Z,2.67
2022-09-29T13:27:46.523Z,1.88
2022-09-29T13:30:23.259Z,2.05
2022-09-29T13:32:55.148Z,2.50
2022-09-29T13:35:27.927Z,2.55
2022-09-29T13:38:05.429Z,2.55
2022-09-29T13:40:33.829Z,2.70
2022-09-29T13:43:05.418Z,3.05
2022-09-29T13:45:35.974Z,2.10
2022-09-29T13:48:32.741Z,2.33
2022-09-29T13:51:23.892Z,2.13
2022-09-29T13:54:29.616Z,2.22
2022-09-29T13:57:13.904Z,2.30
2022-09-29T13:59:47.311Z,2.03
2022-09-29T14:02:36.335Z,2.20
2022-09-29T14:05:25.399Z,2.10
2022-09-29T14:07:55.247Z,2.13
2022-09-29T14:10:33.218Z,2.30
2022-09-29T14:13:11.240Z,2.90
2022-09-29T14:15:44.019Z,2.00
2022-09-29T14:18:33.554Z,2.30
2022-09-29T14:21:05.640Z,2.30
2022-09-29T14:23:46.030Z,2.13
2022-09-29T14:26:47.966Z,2.33
2022-09-29T14:29:24.280Z,2.15
2022-09-29T14:31:55.620Z,2.03
2022-09-29T14:34:26.721Z,2.13
2022-09-29T14:36:56.109Z,2.03
2022-09-29T14:39:27.168Z,1.77
2022-09-29T14:41:56.599Z,1.88
2022-09-29T14:44:55.954Z,1.90
2022-09-29T14:48:07.523Z,1.92
2022-09-29T14:50:53.403Z,1.80
2022-09-29T14:53:43.620Z,2.08
2022-09-29T14:56:28.610Z,2.03
2022-09-29T14:59:09.294Z,1.95
2022-09-29T15:01:41.166Z,1.92
2022-09-29T15:04:16.777Z,2.35
2022-09-29T15:06:49.113Z,1.88
2022-09-29T15:09:24.181Z,2.25
2022-09-29T15:11:54.387Z,2.10
2022-09-29T15:14:21.684Z,2.47
2022-09-29T15:17:20.937Z,2.40
2022-09-29T15:20:43.612Z,2.50
2022-09-29T15:23:22.389Z,2.30
2022-09-29T15:25:51.640Z,2.40
2022-09-29T15:28:33.125Z,2.88
2022-09-29T15:31:04.421Z,2.10
2022-09-29T15:33:36.145Z,2.63
2022-09-29T15:36:07.192Z,2.90
2022-09-29T15:38:38.499Z,2.92
2022-09-29T15:41:12.270Z,2.90
2022-09-29T15:43:51.707Z,2.78
2022-09-29T15:46:22.260Z,3.20
2022-09-29T15:49:04.448Z,3.17
2022-09-29T15:51:32.213Z,2.72
2022-09-29T15:54:01.370Z,3.00
2022-09-29T15:56:31.519Z,3.13
2022-09-29T15:58:59.224Z,2.78
2022-09-29T16:01:26.722Z,2.53
2022-09-29T16:04:01.877Z,2.47
2022-09-29T16:06:37.672Z,2.40
2022-09-29T16:09:08.575Z,2.47
2022-09-29T16:11:39.588Z,2.20
2022-09-29T16:14:12.087Z,2.28
2022-09-29T16:16:48.863Z,2.67
2022-09-29T16:19:27.568Z,3.03
2022-09-29T16:21:58.730Z,3.30
2022-09-29T16:24:30.711Z,2.63
2022-09-29T16:26:59.133Z,2.85
2022-09-29T16:29:34.905Z,3.28
2022-09-29T16:32:41.412Z,10.75
2022-09-29T16:35:42.062Z,17.77
2022-09-29T16:38:26.808Z,14.48
2022-09-29T16:40:57.031Z,17.35
2022-09-29T16:43:31.328Z,22.02
2022-09-29T16:48:30.211Z,18.08
2022-09-29T16:51:08.300Z,16.65
2022-09-29T16:53:36.093Z,12.30
2022-09-29T16:56:10.132Z,11.90
2022-09-29T16:58:37.530Z,10.85
2022-09-29T17:01:05.096Z,10.30
2022-09-29T17:03:33.984Z,9.82
2022-09-29T17:06:03.619Z,9.30
2022-09-29T17:08:35.056Z,9.20
2022-09-29T17:11:02.613Z,9.43
2022-09-29T17:13:34.681Z,9.98
2022-09-29T17:16:06.229Z,8.30
2022-09-29T17:18:33.603Z,8.02
2022-09-29T17:21:01.646Z,7.68
2022-09-29T17:23:28.881Z,6.90
2022-09-29T17:26:16.122Z,7.70
2022-09-29T17:28:43.678Z,7.57
2022-09-29T17:31:13.289Z,7.35
2022-09-29T17:33:42.246Z,7.85
2022-09-29T17:36:14.589Z,7.63
2022-09-29T17:38:42.656Z,6.75
2022-09-29T17:41:16.432Z,6.75
2022-09-29T17:43:46.882Z,8.13
2022-09-29T17:46:17.360Z,10.85
2022-09-29T17:48:44.645Z,16.65
2022-09-29T17:51:19.321Z,17.63
2022-09-29T17:53:47.950Z,15.52
2022-09-29T17:56:22.788Z,11.00
2022-09-29T17:58:50.425Z,8.77
2022-09-29T18:01:20.723Z,7.72
2022-09-29T18:03:48.837Z,8.07
2022-09-29T18:06:21.821Z,7.53
2022-09-29T18:08:53.700Z,7.45
2022-09-29T18:11:24.777Z,7.72
2022-09-29T18:13:52.828Z,6.50
2022-09-29T18:16:22.853Z,8.10
2022-09-29T18:18:55.562Z,8.23
2022-09-29T18:21:26.728Z,9.45
2022-09-29T18:23:54.321Z,10.70
2022-09-29T18:26:21.566Z,11.75
2022-09-29T18:28:51.598Z,10.25
2022-09-29T18:31:28.620Z,10.73
2022-09-29T18:33:56.209Z,10.40
2022-09-29T18:39:06.265Z,10.63
2022-09-29T18:41:33.368Z,9.57
2022-09-29T18:44:01.209Z,8.82
2022-09-29T18:46:30.256Z,9.43
2022-09-29T18:48:57.646Z,9.70
2022-09-29T18:51:26.481Z,9.23
2022-09-29T18:53:53.720Z,8.43
2022-09-29T18:56:21.719Z,9.00
2022-09-29T18:58:49.128Z,9.20
2022-09-29T19:01:23.447Z,8.77
2022-09-29T19:03:51.080Z,9.25
2022-09-29T19:06:18.370Z,10.15
2022-09-29T19:08:49.311Z,10.05
2022-09-29T19:11:25.716Z,10.68
2022-09-29T19:14:06.300Z,9.95
2022-09-29T19:16:34.389Z,9.95
2022-09-29T19:19:04.653Z,10.55
2022-09-29T19:21:32.879Z,11.45
2022-09-29T19:24:00.122Z,11.70
2022-09-29T19:26:27.529Z,10.77
2022-09-29T19:28:55.310Z,11.80
2022-09-29T19:31:25.050Z,13.07
2022-09-29T19:33:52.582Z,13.13
2022-09-29T19:36:21.920Z,13.70
2022-09-29T19:38:49.288Z,12.15
2022-09-29T19:41:19.809Z,12.18
2022-09-29T19:43:47.723Z,12.48
2022-09-29T19:46:16.432Z,13.20
2022-09-29T19:48:44.806Z,12.40
2022-09-29T19:51:34.458Z,12.75
2022-09-29T19:54:11.362Z,15.73
2022-09-29T19:56:48.943Z,17.60
2022-09-29T19:59:21.782Z,16.38
2022-09-29T20:01:52.369Z,15.40
2022-09-29T20:04:24.654Z,16.17
2022-09-29T20:06:56.098Z,12.20
2022-09-29T20:09:23.698Z,14.30
2022-09-29T20:11:51.789Z,15.02
2022-09-29T20:14:23.506Z,14.73
2022-09-29T20:16:53.338Z,14.02
2022-09-29T20:19:22.640Z,13.55
2022-09-29T20:21:51.938Z,13.98
2022-09-29T20:24:24.371Z,13.23
2022-09-29T20:26:51.861Z,15.45
2022-09-29T20:29:20.492Z,12.88
2022-09-29T20:31:48.292Z,13.77
2022-09-29T20:34:22.615Z,12.38
2022-09-29T20:36:54.417Z,13.25
2022-09-29T20:39:22.137Z,12.93
2022-09-29T20:41:50.274Z,12.95
2022-09-29T20:44:20.223Z,11.10
2022-09-29T20:46:51.540Z,12.75
2022-09-29T20:49:18.864Z,12.40
2022-09-29T20:51:46.266Z,12.00
2022-09-29T20:54:14.374Z,12.30
2022-09-29T20:56:41.796Z,12.27
2022-09-29T20:59:17.593Z,13.50
2022-09-29T21:01:45.577Z,13.43
2022-09-29T21:04:19.509Z,14.65
2022-09-29T21:06:52.534Z,13.80
2022-09-29T21:09:23.511Z,14.65
2022-09-29T21:11:52.909Z,14.30
2022-09-29T21:14:24.459Z,14.45
2022-09-29T21:16:53.416Z,13.18
2022-09-29T21:19:46.527Z,13.23
2022-09-29T21:22:13.892Z,12.05
2022-09-29T21:24:41.764Z,13.30
2022-09-29T21:27:09.468Z,13.88
2022-09-29T21:29:36.917Z,13.68
2022-09-29T21:32:04.783Z,15.15
2022-09-29T21:34:32.218Z,15.55
2022-09-29T21:36:59.449Z,15.02
2022-09-29T21:39:26.944Z,14.82
2022-09-29T21:42:02.961Z,15.63
2022-09-29T21:44:30.322Z,15.65
2022-09-29T21:46:57.736Z,14.57
2022-09-29T21:49:53.407Z,13.88
2022-09-29T21:52:20.507Z,13.02
2022-09-29T21:54:49.087Z,15.38
2022-09-29T21:57:16.301Z,15.43
2022-09-29T21:59:43.598Z,17.52
2022-09-29T22:02:10.837Z,20.73
2022-09-29T22:04:39.473Z,19.48
2022-09-29T22:07:06.819Z,16.60
2022-09-29T22:09:33.972Z,16.90
2022-09-29T22:12:03.010Z,16.33
2022-09-29T22:14:31.165Z,15.93
2022-09-29T22:17:01.327Z,17.23
2022-09-29T22:19:30.933Z,17.33
2022-09-29T22:21:58.097Z,20.15
2022-09-29T22:24:27.928Z,19.42
2022-09-29T22:26:56.815Z,19.55
2022-09-29T22:29:26.435Z,19.77
2022-09-29T22:31:54.358Z,19.42
2022-09-29T22:34:35.017Z,19.63
2022-09-29T22:37:03.007Z,19.30
2022-09-29T22:39:30.602Z,17.25
2022-09-29T22:42:01.643Z,17.25
2022-09-29T22:44:29.825Z,17.38
2022-09-29T22:46:57.997Z,18.20
2022-09-29T22:49:26.122Z,19.77
2022-09-29T22:51:53.741Z,19.42
2022-09-29T22:54:21.425Z,21.00
2022-09-29T22:56:50.921Z,19.55
2022-09-29T22:59:18.978Z,18.67
2022-09-29T23:01:48.051Z,19.13
2022-09-29T23:04:15.995Z,19.63
2022-09-29T23:06:43.482Z,20.10
2022-09-29T23:09:12.607Z,20.30
2022-09-29T23:11:41.146Z,22.13
2022-09-29T23:14:10.801Z,21.08
2022-09-29T23:16:39.018Z,22.98
2022-09-29T23:19:06.485Z,21.52
2022-09-29T23:21:34.445Z,20.73
2022-09-29T23:24:02.554Z,22.05
2022-09-29T23:26:31.121Z,21.08
2022-09-29T23:29:00.654Z,20.98
2022-09-29T23:31:33.442Z,19.67
2022-09-29T23:34:01.337Z,19.08
2022-09-29T23:36:30.378Z,20.27
2022-09-29T23:39:10.812Z,19.35
2022-09-29T23:41:40.050Z,19.92
2022-09-29T23:44:08.017Z,20.35
2022-09-29T23:46:38.092Z,19.83
2022-09-29T23:49:09.753Z,21.42
2022-09-29T23:52:06.019Z,19.98
2022-09-29T23:54:33.391Z,19.88
2022-09-29T23:57:00.593Z,20.88
2022-09-29T23:59:28.065Z,20.02
